createdAt,value
2023-04-29T00:00:07.425Z,9.46
2023-04-29T00:00:35.540Z,9.45
2023-04-29T00:00:57.736Z,9.44
2023-04-29T00:01:19.570Z,9.43
2023-04-29T00:01:41.609Z,9.42
2023-04-29T00:02:03.354Z,9.41
2023-04-29T00:02:25.270Z,9.41
2023-04-29T00:02:47.471Z,9.39
2023-04-29T00:03:09.722Z,9.37
2023-04-29T00:03:35.173Z,9.36
2023-04-29T00:03:57.427Z,9.34
2023-04-29T00:04:19.970Z,9.33
2023-04-29T00:04:42.368Z,9.32
2023-04-29T00:05:05.669Z,9.32
2023-04-29T00:05:27.740Z,9.32
2023-04-29T00:05:49.888Z,9.31
2023-04-29T00:06:12.131Z,9.31
2023-04-29T00:06:34.119Z,9.32
2023-04-29T00:06:56.003Z,9.32
2023-04-29T00:07:17.794Z,9.32
2023-04-29T00:07:39.496Z,9.33
2023-04-29T00:08:01.492Z,9.33
2023-04-29T00:08:23.645Z,9.34
2023-04-29T00:08:45.359Z,9.34
2023-04-29T00:09:07.130Z,9.33
2023-04-29T00:09:28.896Z,9.34
2023-04-29T00:09:51.078Z,9.33
2023-04-29T00:10:14.862Z,9.33
2023-04-29T00:10:36.806Z,9.32
2023-04-29T00:10:58.594Z,9.32
2023-04-29T00:11:20.686Z,9.31
2023-04-29T00:11:42.478Z,9.30
2023-04-29T00:12:04.257Z,9.29
2023-04-29T00:12:26.244Z,9.28
2023-04-29T00:12:48.948Z,9.27
2023-04-29T00:13:13.096Z,9.26
2023-04-29T00:13:34.877Z,9.24
2023-04-29T00:13:56.653Z,9.23
2023-04-29T00:14:18.538Z,9.23
2023-04-29T00:14:40.322Z,9.23
2023-04-29T00:15:03.325Z,9.22
2023-04-29T00:15:25.085Z,9.23
2023-04-29T00:15:46.903Z,9.23
2023-04-29T00:16:10.480Z,9.24
2023-04-29T00:16:32.545Z,9.25
2023-04-29T00:16:54.352Z,9.26
2023-04-29T00:17:16.416Z,9.27
2023-04-29T00:17:38.213Z,9.28
2023-04-29T00:18:00.019Z,9.29
2023-04-29T00:18:21.955Z,9.30
2023-04-29T00:18:43.737Z,9.31
2023-04-29T00:19:05.527Z,9.32
2023-04-29T00:19:27.932Z,9.33
2023-04-29T00:19:51.268Z,9.33
2023-04-29T00:20:13.336Z,9.33
2023-04-29T00:20:35.319Z,9.32
2023-04-29T00:20:57.307Z,9.31
2023-04-29T00:21:19.294Z,9.30
2023-04-29T00:21:41.602Z,9.29
2023-04-29T00:22:03.319Z,9.27
2023-04-29T00:22:25.164Z,9.27
2023-04-29T00:22:47.058Z,9.26
2023-04-29T00:23:08.810Z,9.24
2023-04-29T00:23:30.535Z,9.23
2023-04-29T00:23:52.298Z,9.22
2023-04-29T00:24:14.286Z,9.21
2023-04-29T00:24:36.381Z,9.20
2023-04-29T00:24:58.074Z,9.20
2023-04-29T00:25:20.608Z,9.20
2023-04-29T00:25:42.344Z,9.19
2023-04-29T00:26:04.238Z,9.19
2023-04-29T00:26:26.020Z,9.19
2023-04-29T00:26:48.928Z,9.19
2023-04-29T00:27:12.177Z,9.19
2023-04-29T00:27:33.929Z,9.20
2023-04-29T00:27:55.812Z,9.19
2023-04-29T00:28:17.603Z,9.20
2023-04-29T00:28:39.485Z,9.20
2023-04-29T00:29:01.475Z,9.20
2023-04-29T00:29:23.770Z,9.21
2023-04-29T00:29:45.873Z,9.21
2023-04-29T00:30:08.399Z,9.20
2023-04-29T00:30:30.257Z,9.20
2023-04-29T00:30:52.098Z,9.19
2023-04-29T00:31:14.857Z,9.19
2023-04-29T00:31:37.853Z,9.18
2023-04-29T00:32:00.166Z,9.17
2023-04-29T00:32:23.156Z,9.16
2023-04-29T00:32:45.747Z,9.14
2023-04-29T00:33:07.568Z,9.14
2023-04-29T00:33:30.864Z,9.12
2023-04-29T00:33:52.533Z,9.12
2023-04-29T00:34:14.285Z,9.11
2023-04-29T00:34:36.137Z,9.11
2023-04-29T00:34:58.056Z,9.11
2023-04-29T00:35:19.813Z,9.11
2023-04-29T00:35:41.502Z,9.11
2023-04-29T00:36:03.664Z,9.12
2023-04-29T00:36:26.287Z,9.12
2023-04-29T00:36:48.152Z,9.13
2023-04-29T00:37:09.935Z,9.13
2023-04-29T00:37:32.028Z,9.15
2023-04-29T00:37:54.144Z,9.15
2023-04-29T00:38:16.110Z,9.16
2023-04-29T00:38:38.300Z,9.16
2023-04-29T00:39:00.299Z,9.16
2023-04-29T00:39:22.053Z,9.17
2023-04-29T00:39:43.861Z,9.17
2023-04-29T00:40:06.791Z,9.16
2023-04-29T00:40:28.859Z,9.15
2023-04-29T00:40:50.864Z,9.15
2023-04-29T00:41:12.633Z,9.14
2023-04-29T00:41:34.372Z,9.13
2023-04-29T00:41:56.415Z,9.13
2023-04-29T00:42:18.194Z,9.12
2023-04-29T00:42:39.909Z,9.11
2023-04-29T00:43:01.759Z,9.11
2023-04-29T00:43:23.546Z,9.10
2023-04-29T00:43:45.470Z,9.08
2023-04-29T00:44:07.840Z,9.08
2023-04-29T00:44:29.585Z,9.07
2023-04-29T00:44:51.274Z,9.07
2023-04-29T00:45:13.019Z,9.07
2023-04-29T00:45:34.764Z,9.08
2023-04-29T00:45:56.702Z,9.08
2023-04-29T00:46:18.908Z,9.08
2023-04-29T00:46:41.597Z,9.09
2023-04-29T00:47:04.355Z,9.10
2023-04-29T00:47:26.186Z,9.11
2023-04-29T00:47:48.139Z,9.12
2023-04-29T00:48:10.062Z,9.12
2023-04-29T00:48:33.231Z,9.12
2023-04-29T00:48:55.015Z,9.12
2023-04-29T00:49:16.905Z,9.13
2023-04-29T00:49:39.213Z,9.13
2023-04-29T00:50:01.006Z,9.13
2023-04-29T00:50:22.872Z,9.13
2023-04-29T00:50:44.671Z,9.13
2023-04-29T00:51:06.767Z,9.12
2023-04-29T00:51:29.347Z,9.12
2023-04-29T00:51:51.079Z,9.11
2023-04-29T00:52:12.922Z,9.10
2023-04-29T00:52:34.688Z,9.10
2023-04-29T00:52:56.589Z,9.09
2023-04-29T00:53:18.312Z,9.08
2023-04-29T00:53:40.009Z,9.08
2023-04-29T00:54:02.044Z,9.08
2023-04-29T00:54:23.830Z,9.08
2023-04-29T00:54:45.620Z,9.09
2023-04-29T00:55:09.166Z,9.10
2023-04-29T00:55:31.282Z,9.10
2023-04-29T00:55:53.070Z,9.11
2023-04-29T00:56:16.066Z,9.11
2023-04-29T00:56:37.911Z,9.12
2023-04-29T00:56:59.799Z,9.12
2023-04-29T00:57:21.686Z,9.13
2023-04-29T00:57:43.688Z,9.13
2023-04-29T00:58:05.560Z,9.14
2023-04-29T00:58:33.310Z,9.14
2023-04-29T00:58:55.164Z,9.14
2023-04-29T00:59:17.462Z,9.14
2023-04-29T00:59:39.145Z,9.14
2023-04-29T01:00:01.033Z,9.14
2023-04-29T01:00:23.039Z,9.14
2023-04-29T01:00:46.985Z,9.13
2023-04-29T01:01:08.974Z,9.13
2023-04-29T01:01:30.855Z,9.12
2023-04-29T01:01:54.198Z,9.12
2023-04-29T01:02:16.019Z,9.11
2023-04-29T01:02:37.923Z,9.10
2023-04-29T01:03:00.154Z,9.09
2023-04-29T01:03:22.244Z,9.10
2023-04-29T01:03:44.595Z,9.09
2023-04-29T01:04:08.282Z,9.08
2023-04-29T01:04:31.190Z,9.09
2023-04-29T01:04:53.423Z,9.09
2023-04-29T01:05:16.038Z,9.10
2023-04-29T01:05:37.922Z,9.10
2023-04-29T01:06:06.561Z,9.11
2023-04-29T01:06:35.604Z,9.12
2023-04-29T01:07:00.475Z,9.13
2023-04-29T01:07:42.512Z,9.14
2023-04-29T01:08:10.210Z,9.15
2023-04-29T01:08:38.436Z,9.16
2023-04-29T01:09:00.227Z,9.17
2023-04-29T01:09:28.246Z,9.18
2023-04-29T01:10:02.115Z,9.18
2023-04-29T01:10:28.391Z,9.18
2023-04-29T01:11:03.771Z,9.17
2023-04-29T01:11:26.267Z,9.17
2023-04-29T01:12:00.222Z,9.16
2023-04-29T01:12:26.513Z,9.15
2023-04-29T01:12:59.955Z,9.14
2023-04-29T01:13:27.266Z,9.12
2023-04-29T01:13:55.590Z,9.12
2023-04-29T01:14:17.440Z,9.10
2023-04-29T01:14:39.682Z,9.10
2023-04-29T01:15:01.762Z,9.10
2023-04-29T01:15:25.285Z,9.09
2023-04-29T01:15:48.492Z,9.10
2023-04-29T01:16:18.611Z,9.10
2023-04-29T01:16:44.459Z,9.11
2023-04-29T01:17:11.917Z,9.11
2023-04-29T01:17:45.318Z,9.12
2023-04-29T01:18:16.388Z,9.12
2023-04-29T01:18:46.816Z,9.13
2023-04-29T01:19:34.837Z,9.14
2023-04-29T01:19:58.967Z,9.14
2023-04-29T01:20:20.789Z,9.14
2023-04-29T01:20:44.821Z,9.15
2023-04-29T01:21:06.728Z,9.15
2023-04-29T01:21:33.665Z,9.14
2023-04-29T01:21:55.494Z,9.13
2023-04-29T01:22:21.958Z,9.13
2023-04-29T01:22:44.151Z,9.12
2023-04-29T01:23:06.337Z,9.11
2023-04-29T01:23:29.069Z,9.10
2023-04-29T01:23:56.300Z,9.09
2023-04-29T01:24:20.283Z,9.07
2023-04-29T01:24:43.501Z,9.05
2023-04-29T01:25:08.866Z,9.04
2023-04-29T01:25:50.214Z,9.03
2023-04-29T01:26:38.238Z,9.01
2023-04-29T01:27:08.521Z,9.01
2023-04-29T01:27:46.881Z,9.02
2023-04-29T01:28:16.858Z,9.03
2023-04-29T01:28:41.283Z,9.03
2023-04-29T01:29:15.145Z,9.04
2023-04-29T01:29:51.051Z,9.05
2023-04-29T01:30:25.203Z,9.06
2023-04-29T01:30:49.722Z,9.06
2023-04-29T01:31:33.745Z,9.06
2023-04-29T01:32:01.334Z,9.05
2023-04-29T01:32:26.634Z,9.04
2023-04-29T01:32:58.374Z,9.02
2023-04-29T01:33:39.519Z,9.00
2023-04-29T01:34:12.248Z,8.98
2023-04-29T01:34:34.034Z,8.96
2023-04-29T01:35:08.708Z,8.96
2023-04-29T01:35:33.762Z,8.95
2023-04-29T01:36:07.677Z,8.95
2023-04-29T01:36:35.671Z,8.96
2023-04-29T01:37:01.006Z,8.97
2023-04-29T01:37:26.874Z,8.97
2023-04-29T01:37:49.790Z,8.99
2023-04-29T01:38:22.921Z,8.99
2023-04-29T01:39:14.062Z,9.00
2023-04-29T01:39:38.299Z,9.01
2023-04-29T01:40:12.456Z,9.01
2023-04-29T01:40:43.858Z,9.02
2023-04-29T01:41:11.574Z,9.02
2023-04-29T01:41:39.284Z,9.02
2023-04-29T01:42:24.189Z,9.02
2023-04-29T01:42:49.451Z,9.01
2023-04-29T01:43:13.183Z,9.00
2023-04-29T01:43:38.856Z,8.99
2023-04-29T01:44:17.307Z,8.97
2023-04-29T01:44:39.088Z,8.95
2023-04-29T01:45:02.208Z,8.94
2023-04-29T01:45:24.201Z,8.93
2023-04-29T01:45:48.434Z,8.94
2023-04-29T01:46:11.997Z,8.93
2023-04-29T01:46:33.906Z,8.94
2023-04-29T01:46:56.607Z,8.94
2023-04-29T01:47:24.680Z,8.96
2023-04-29T01:47:49.208Z,8.97
2023-04-29T01:48:11.306Z,8.98
2023-04-29T01:48:33.097Z,8.99
2023-04-29T01:48:55.298Z,9.00
2023-04-29T01:49:20.139Z,9.01
2023-04-29T01:49:42.133Z,9.02
2023-04-29T01:50:04.037Z,9.02
2023-04-29T01:50:26.410Z,9.03
2023-04-29T01:50:49.329Z,9.03
2023-04-29T01:51:12.234Z,9.04
2023-04-29T01:51:34.674Z,9.05
2023-04-29T01:51:57.232Z,9.05
2023-04-29T01:52:19.467Z,9.04
2023-04-29T01:52:50.520Z,9.04
2023-04-29T01:53:12.313Z,9.03
2023-04-29T01:53:34.700Z,9.03
2023-04-29T01:53:57.506Z,9.02
2023-04-29T01:54:19.486Z,9.01
2023-04-29T01:54:41.296Z,9.00
2023-04-29T01:55:03.882Z,9.00
2023-04-29T01:55:46.034Z,8.98
2023-04-29T01:56:16.409Z,8.96
2023-04-29T01:56:55.681Z,8.96
2023-04-29T01:57:22.842Z,8.95
2023-04-29T01:58:04.092Z,8.95
2023-04-29T01:58:44.800Z,8.95
2023-04-29T01:59:26.835Z,8.96
2023-04-29T01:59:48.617Z,8.96
2023-04-29T02:00:40.131Z,8.97
2023-04-29T02:01:02.322Z,8.98
2023-04-29T02:01:26.188Z,8.98
2023-04-29T02:01:48.080Z,8.98
2023-04-29T02:02:10.426Z,8.97
2023-04-29T02:02:35.690Z,8.97
2023-04-29T02:03:07.850Z,8.96
2023-04-29T02:03:36.638Z,8.95
2023-04-29T02:04:00.673Z,8.94
2023-04-29T02:04:22.632Z,8.93
2023-04-29T02:04:44.846Z,8.91
2023-04-29T02:05:06.690Z,8.90
2023-04-29T02:05:32.584Z,8.89
2023-04-29T02:05:55.799Z,8.88
2023-04-29T02:06:17.975Z,8.87
2023-04-29T02:06:40.885Z,8.87
2023-04-29T02:07:03.906Z,8.87
2023-04-29T02:07:25.785Z,8.87
2023-04-29T02:07:48.080Z,8.88
2023-04-29T02:08:09.867Z,8.89
2023-04-29T02:08:35.859Z,8.90
2023-04-29T02:08:58.143Z,8.90
2023-04-29T02:09:19.918Z,8.91
2023-04-29T02:09:46.305Z,8.91
2023-04-29T02:10:08.398Z,8.91
2023-04-29T02:10:36.529Z,8.91
2023-04-29T02:11:07.212Z,8.91
2023-04-29T02:11:31.642Z,8.91
2023-04-29T02:11:53.433Z,8.90
2023-04-29T02:12:15.149Z,8.90
2023-04-29T02:12:37.218Z,8.89
2023-04-29T02:12:59.408Z,8.88
2023-04-29T02:13:21.291Z,8.88
2023-04-29T02:13:43.283Z,8.87
2023-04-29T02:14:05.469Z,8.86
2023-04-29T02:14:27.239Z,8.85
2023-04-29T02:14:52.838Z,8.83
2023-04-29T02:15:14.713Z,8.83
2023-04-29T02:15:36.504Z,8.82
2023-04-29T02:15:58.314Z,8.82
2023-04-29T02:16:20.510Z,8.82
2023-04-29T02:16:49.957Z,8.82
2023-04-29T02:17:11.820Z,8.83
2023-04-29T02:17:35.371Z,8.83
2023-04-29T02:17:57.302Z,8.84
2023-04-29T02:18:19.079Z,8.85
2023-04-29T02:18:42.578Z,8.85
2023-04-29T02:19:04.628Z,8.87
2023-04-29T02:19:26.536Z,8.87
2023-04-29T02:19:49.517Z,8.88
2023-04-29T02:20:11.822Z,8.88
2023-04-29T02:20:33.569Z,8.88
2023-04-29T02:21:00.097Z,8.88
2023-04-29T02:21:21.882Z,8.88
2023-04-29T02:21:44.280Z,8.88
2023-04-29T02:22:06.489Z,8.87
2023-04-29T02:22:28.668Z,8.87
2023-04-29T02:22:51.677Z,8.86
2023-04-29T02:23:13.973Z,8.85
2023-04-29T02:23:36.076Z,8.84
2023-04-29T02:23:57.961Z,8.82
2023-04-29T02:24:19.840Z,8.82
2023-04-29T02:24:42.954Z,8.81
2023-04-29T02:25:05.166Z,8.79
2023-04-29T02:25:27.138Z,8.78
2023-04-29T02:25:49.536Z,8.79
2023-04-29T02:26:12.144Z,8.78
2023-04-29T02:26:34.646Z,8.79
2023-04-29T02:26:57.239Z,8.79
2023-04-29T02:27:19.246Z,8.80
2023-04-29T02:27:40.949Z,8.81
2023-04-29T02:28:02.805Z,8.82
2023-04-29T02:28:24.567Z,8.82
2023-04-29T02:28:46.675Z,8.83
2023-04-29T02:29:08.660Z,8.84
2023-04-29T02:29:31.158Z,8.84
2023-04-29T02:29:53.852Z,8.85
2023-04-29T02:30:15.827Z,8.86
2023-04-29T02:30:37.573Z,8.86
2023-04-29T02:30:59.336Z,8.86
2023-04-29T02:31:21.101Z,8.87
2023-04-29T02:31:43.226Z,8.86
2023-04-29T02:32:06.475Z,8.86
2023-04-29T02:32:28.652Z,8.86
2023-04-29T02:32:50.416Z,8.85
2023-04-29T02:33:12.298Z,8.84
2023-04-29T02:33:34.473Z,8.84
2023-04-29T02:33:56.374Z,8.83
2023-04-29T02:34:18.268Z,8.82
2023-04-29T02:34:40.056Z,8.81
2023-04-29T02:35:02.121Z,8.80
2023-04-29T02:35:23.908Z,8.79
2023-04-29T02:35:45.692Z,8.78
2023-04-29T02:36:07.487Z,8.78
2023-04-29T02:36:29.189Z,8.77
2023-04-29T02:36:51.049Z,8.77
2023-04-29T02:37:16.580Z,8.77
2023-04-29T02:37:38.618Z,8.78
2023-04-29T02:38:00.390Z,8.78
2023-04-29T02:38:22.089Z,8.79
2023-04-29T02:38:43.979Z,8.79
2023-04-29T02:39:05.680Z,8.80
2023-04-29T02:39:27.834Z,8.81
2023-04-29T02:39:50.268Z,8.81
2023-04-29T02:40:12.959Z,8.82
2023-04-29T02:40:35.335Z,8.82
2023-04-29T02:40:57.425Z,8.83
2023-04-29T02:41:19.161Z,8.83
2023-04-29T02:41:43.195Z,8.83
2023-04-29T02:42:06.260Z,8.84
2023-04-29T02:42:28.043Z,8.83
2023-04-29T02:42:49.930Z,8.84
2023-04-29T02:43:12.233Z,8.83
2023-04-29T02:43:34.246Z,8.83
2023-04-29T02:43:56.200Z,8.82
2023-04-29T02:44:17.983Z,8.82
2023-04-29T02:44:40.197Z,8.82
2023-04-29T02:45:02.807Z,8.81
2023-04-29T02:45:24.875Z,8.80
2023-04-29T02:45:46.633Z,8.80
2023-04-29T02:46:08.707Z,8.79
2023-04-29T02:46:30.685Z,8.78
2023-04-29T02:46:52.423Z,8.78
2023-04-29T02:47:14.513Z,8.78
2023-04-29T02:47:36.612Z,8.79
2023-04-29T02:47:58.415Z,8.79
2023-04-29T02:48:20.692Z,8.81
2023-04-29T02:48:42.979Z,8.81
2023-04-29T02:49:04.712Z,8.82
2023-04-29T02:49:26.859Z,8.83
2023-04-29T02:49:49.052Z,8.83
2023-04-29T02:50:10.838Z,8.84
2023-04-29T02:50:33.338Z,8.85
2023-04-29T02:50:55.324Z,8.85
2023-04-29T02:51:17.119Z,8.86
2023-04-29T02:51:38.889Z,8.86
2023-04-29T02:52:00.988Z,8.86
2023-04-29T02:52:23.483Z,8.86
2023-04-29T02:52:46.702Z,8.85
2023-04-29T02:53:08.586Z,8.84
2023-04-29T02:53:30.288Z,8.83
2023-04-29T02:53:52.358Z,8.83
2023-04-29T02:54:14.266Z,8.82
2023-04-29T02:54:36.748Z,8.82
2023-04-29T02:54:58.537Z,8.81
2023-04-29T02:55:20.502Z,8.80
2023-04-29T02:55:43.541Z,8.79
2023-04-29T02:56:05.830Z,8.78
2023-04-29T02:56:27.926Z,8.77
2023-04-29T02:56:49.633Z,8.76
2023-04-29T02:57:11.487Z,8.76
2023-04-29T02:57:34.206Z,8.75
2023-04-29T02:57:56.078Z,8.76
2023-04-29T02:58:17.865Z,8.76
2023-04-29T02:58:39.576Z,8.77
2023-04-29T02:59:01.538Z,8.77
2023-04-29T02:59:23.423Z,8.78
2023-04-29T02:59:45.208Z,8.79
2023-04-29T03:00:07.615Z,8.80
2023-04-29T03:00:29.349Z,8.80
2023-04-29T03:00:51.126Z,8.81
2023-04-29T03:01:13.199Z,8.82
2023-04-29T03:01:35.200Z,8.82
2023-04-29T03:01:57.348Z,8.83
2023-04-29T03:02:19.224Z,8.82
2023-04-29T03:02:43.014Z,8.83
2023-04-29T03:03:05.659Z,8.82
2023-04-29T03:03:27.895Z,8.82
2023-04-29T03:03:49.955Z,8.81
2023-04-29T03:04:12.898Z,8.80
2023-04-29T03:04:35.072Z,8.80
2023-04-29T03:04:57.174Z,8.79
2023-04-29T03:05:19.446Z,8.78
2023-04-29T03:05:41.398Z,8.77
2023-04-29T03:06:03.740Z,8.77
2023-04-29T03:06:26.136Z,8.76
2023-04-29T03:06:47.889Z,8.76
2023-04-29T03:07:09.695Z,8.77
2023-04-29T03:07:32.167Z,8.78
2023-04-29T03:07:53.984Z,8.79
2023-04-29T03:08:15.874Z,8.79
2023-04-29T03:08:37.651Z,8.80
2023-04-29T03:08:59.436Z,8.82
2023-04-29T03:09:22.345Z,8.82
2023-04-29T03:09:44.129Z,8.82
2023-04-29T03:10:06.527Z,8.83
2023-04-29T03:10:28.735Z,8.83
2023-04-29T03:10:50.607Z,8.84
2023-04-29T03:11:13.619Z,8.84
2023-04-29T03:11:35.531Z,8.85
2023-04-29T03:11:57.403Z,8.85
2023-04-29T03:12:19.204Z,8.85
2023-04-29T03:12:41.265Z,8.85
2023-04-29T03:13:03.051Z,8.84
2023-04-29T03:13:25.658Z,8.83
2023-04-29T03:13:48.680Z,8.83
2023-04-29T03:14:10.556Z,8.82
2023-04-29T03:14:32.443Z,8.82
2023-04-29T03:14:54.328Z,8.81
2023-04-29T03:15:17.698Z,8.80
2023-04-29T03:15:39.844Z,8.79
2023-04-29T03:16:01.935Z,8.78
2023-04-29T03:16:24.594Z,8.77
2023-04-29T03:16:46.660Z,8.77
2023-04-29T03:17:08.717Z,8.77
2023-04-29T03:17:30.822Z,8.78
2023-04-29T03:17:52.772Z,8.78
2023-04-29T03:18:14.603Z,8.79
2023-04-29T03:18:36.475Z,8.80
2023-04-29T03:18:58.456Z,8.81
2023-04-29T03:19:20.237Z,8.81
2023-04-29T03:19:44.893Z,8.82
2023-04-29T03:20:08.412Z,8.83
2023-04-29T03:20:30.296Z,8.83
2023-04-29T03:20:52.084Z,8.83
2023-04-29T03:21:13.875Z,8.83
2023-04-29T03:21:35.964Z,8.84
2023-04-29T03:21:57.793Z,8.84
2023-04-29T03:22:19.935Z,8.84
2023-04-29T03:22:43.126Z,8.84
2023-04-29T03:23:05.374Z,8.83
2023-04-29T03:23:28.251Z,8.84
2023-04-29T03:23:50.588Z,8.83
2023-04-29T03:24:16.122Z,8.82
2023-04-29T03:24:38.169Z,8.81
2023-04-29T03:24:59.994Z,8.80
2023-04-29T03:25:22.085Z,8.80
2023-04-29T03:25:44.149Z,8.79
2023-04-29T03:26:06.123Z,8.78
2023-04-29T03:26:28.153Z,8.78
2023-04-29T03:26:49.866Z,8.77
2023-04-29T03:27:14.380Z,8.77
2023-04-29T03:27:36.675Z,8.77
2023-04-29T03:27:58.461Z,8.78
2023-04-29T03:28:20.351Z,8.77
2023-04-29T03:28:42.979Z,8.79
2023-04-29T03:29:04.836Z,8.79
2023-04-29T03:29:27.868Z,8.80
2023-04-29T03:29:49.623Z,8.81
2023-04-29T03:30:11.931Z,8.81
2023-04-29T03:30:39.134Z,8.82
2023-04-29T03:31:01.216Z,8.82
2023-04-29T03:31:24.665Z,8.83
2023-04-29T03:31:46.655Z,8.83
2023-04-29T03:32:08.414Z,8.83
2023-04-29T03:32:30.202Z,8.84
2023-04-29T03:32:51.943Z,8.84
2023-04-29T03:33:14.185Z,8.84
2023-04-29T03:33:36.278Z,8.84
2023-04-29T03:33:58.473Z,8.83
2023-04-29T03:34:20.668Z,8.83
2023-04-29T03:34:46.328Z,8.83
2023-04-29T03:35:34.206Z,8.81
2023-04-29T03:36:22.060Z,8.79
2023-04-29T03:37:02.873Z,8.78
2023-04-29T03:37:25.065Z,8.77
2023-04-29T03:37:52.584Z,8.76
2023-04-29T03:38:26.130Z,8.77
2023-04-29T03:38:48.721Z,8.76
2023-04-29T03:39:12.089Z,8.77
2023-04-29T03:39:33.928Z,8.78
2023-04-29T03:39:55.717Z,8.79
2023-04-29T03:40:17.625Z,8.80
2023-04-29T03:40:39.401Z,8.81
2023-04-29T03:41:01.321Z,8.81
2023-04-29T03:41:24.379Z,8.82
2023-04-29T03:41:47.196Z,8.83
2023-04-29T03:42:09.731Z,8.83
2023-04-29T03:42:31.476Z,8.83
2023-04-29T03:42:53.216Z,8.84
2023-04-29T03:43:15.245Z,8.84
2023-04-29T03:43:37.135Z,8.85
2023-04-29T03:44:01.024Z,8.84
2023-04-29T03:44:23.977Z,8.84
2023-04-29T03:44:45.967Z,8.83
2023-04-29T03:45:08.160Z,8.81
2023-04-29T03:45:30.147Z,8.80
2023-04-29T03:45:52.763Z,8.79
2023-04-29T03:46:17.021Z,8.78
2023-04-29T03:46:40.005Z,8.77
2023-04-29T03:47:01.940Z,8.77
2023-04-29T03:47:24.209Z,8.76
2023-04-29T03:47:46.099Z,8.75
2023-04-29T03:48:08.468Z,8.74
2023-04-29T03:48:30.660Z,8.73
2023-04-29T03:48:52.651Z,8.72
2023-04-29T03:49:14.463Z,8.73
2023-04-29T03:49:36.628Z,8.73
2023-04-29T03:49:58.412Z,8.73
2023-04-29T03:50:20.400Z,8.73
2023-04-29T03:50:42.361Z,8.74
2023-04-29T03:51:04.494Z,8.74
2023-04-29T03:51:26.293Z,8.75
2023-04-29T03:51:53.681Z,8.76
2023-04-29T03:52:16.278Z,8.77
2023-04-29T03:52:38.805Z,8.77
2023-04-29T03:53:09.468Z,8.78
2023-04-29T03:53:31.861Z,8.79
2023-04-29T03:53:54.566Z,8.79
2023-04-29T03:54:16.352Z,8.79
2023-04-29T03:54:38.194Z,8.79
2023-04-29T03:55:01.042Z,8.78
2023-04-29T03:55:22.791Z,8.78
2023-04-29T03:55:45.120Z,8.77
2023-04-29T03:56:07.320Z,8.76
2023-04-29T03:56:29.029Z,8.75
2023-04-29T03:56:50.818Z,8.74
2023-04-29T03:57:13.183Z,8.73
2023-04-29T03:57:34.969Z,8.72
2023-04-29T03:57:56.751Z,8.71
2023-04-29T03:58:18.540Z,8.70
2023-04-29T03:58:40.421Z,8.70
2023-04-29T03:59:02.870Z,8.70
2023-04-29T03:59:25.344Z,8.69
2023-04-29T03:59:50.892Z,8.70
2023-04-29T04:00:13.309Z,8.70
2023-04-29T04:00:43.154Z,8.70
2023-04-29T04:01:07.084Z,8.71
2023-04-29T04:01:33.642Z,8.72
2023-04-29T04:01:57.060Z,8.73
2023-04-29T04:02:19.806Z,8.74
2023-04-29T04:02:41.885Z,8.75
2023-04-29T04:03:05.500Z,8.75
2023-04-29T04:03:28.975Z,8.76
2023-04-29T04:03:52.606Z,8.77
2023-04-29T04:04:15.627Z,8.77
2023-04-29T04:04:41.531Z,8.78
2023-04-29T04:05:03.857Z,8.78
2023-04-29T04:05:25.641Z,8.77
2023-04-29T04:05:55.194Z,8.77
2023-04-29T04:06:16.907Z,8.75
2023-04-29T04:06:39.473Z,8.75
2023-04-29T04:07:01.273Z,8.74
2023-04-29T04:07:25.909Z,8.74
2023-04-29T04:08:06.522Z,8.73
2023-04-29T04:08:54.274Z,8.72
2023-04-29T04:09:20.660Z,8.71
2023-04-29T04:09:42.592Z,8.71
2023-04-29T04:10:05.070Z,8.72
2023-04-29T04:10:28.580Z,8.73
2023-04-29T04:10:50.868Z,8.74
2023-04-29T04:11:32.912Z,8.75
2023-04-29T04:11:57.757Z,8.76
2023-04-29T04:12:19.848Z,8.78
2023-04-29T04:12:43.946Z,8.78
2023-04-29T04:13:06.131Z,8.78
2023-04-29T04:13:28.470Z,8.79
2023-04-29T04:13:50.361Z,8.79
2023-04-29T04:14:12.195Z,8.79
2023-04-29T04:14:34.743Z,8.80
2023-04-29T04:14:57.243Z,8.79
2023-04-29T04:15:19.229Z,8.79
2023-04-29T04:15:41.428Z,8.78
2023-04-29T04:16:03.762Z,8.78
2023-04-29T04:16:25.782Z,8.77
2023-04-29T04:16:47.701Z,8.77
2023-04-29T04:17:09.711Z,8.75
2023-04-29T04:17:32.720Z,8.74
2023-04-29T04:17:54.536Z,8.74
2023-04-29T04:18:16.405Z,8.73
2023-04-29T04:18:38.711Z,8.72
2023-04-29T04:19:00.613Z,8.71
2023-04-29T04:19:22.485Z,8.71
2023-04-29T04:19:44.471Z,8.71
2023-04-29T04:20:06.626Z,8.71
2023-04-29T04:20:28.411Z,8.72
2023-04-29T04:20:50.214Z,8.72
2023-04-29T04:21:12.403Z,8.73
2023-04-29T04:21:36.218Z,8.74
2023-04-29T04:22:00.971Z,8.74
2023-04-29T04:22:22.960Z,8.75
2023-04-29T04:22:59.265Z,8.75
2023-04-29T04:23:24.527Z,8.76
2023-04-29T04:23:46.718Z,8.77
2023-04-29T04:24:10.240Z,8.77
2023-04-29T04:24:32.742Z,8.77
2023-04-29T04:24:57.510Z,8.78
2023-04-29T04:25:19.248Z,8.79
2023-04-29T04:25:47.689Z,8.79
2023-04-29T04:26:42.536Z,8.79
2023-04-29T04:27:16.086Z,8.78
2023-04-29T04:27:41.950Z,8.77
2023-04-29T04:28:06.719Z,8.77
2023-04-29T04:28:47.267Z,8.76
2023-04-29T04:29:16.874Z,8.75
2023-04-29T04:30:08.518Z,8.73
2023-04-29T04:30:30.233Z,8.74
2023-04-29T04:30:51.980Z,8.74
2023-04-29T04:31:15.009Z,8.74
2023-04-29T04:31:37.074Z,8.75
2023-04-29T04:31:59.029Z,8.76
2023-04-29T04:32:23.937Z,8.77
2023-04-29T04:32:46.670Z,8.78
2023-04-29T04:33:08.825Z,8.79
2023-04-29T04:33:31.541Z,8.80
2023-04-29T04:33:54.030Z,8.81
2023-04-29T04:34:15.811Z,8.81
2023-04-29T04:34:39.667Z,8.82
2023-04-29T04:35:01.533Z,8.82
2023-04-29T04:35:23.579Z,8.83
2023-04-29T04:35:45.934Z,8.83
2023-04-29T04:36:08.110Z,8.82
2023-04-29T04:36:29.994Z,8.82
2023-04-29T04:36:51.787Z,8.82
2023-04-29T04:37:13.568Z,8.81
2023-04-29T04:37:35.964Z,8.80
2023-04-29T04:37:58.777Z,8.79
2023-04-29T04:38:20.686Z,8.78
2023-04-29T04:38:42.555Z,8.76
2023-04-29T04:39:06.579Z,8.77
2023-04-29T04:39:28.367Z,8.76
2023-04-29T04:39:51.500Z,8.76
2023-04-29T04:40:14.090Z,8.77
2023-04-29T04:40:55.937Z,8.78
2023-04-29T04:41:28.128Z,8.80
2023-04-29T04:41:49.977Z,8.80
2023-04-29T04:42:12.005Z,8.82
2023-04-29T04:42:34.207Z,8.83
2023-04-29T04:42:56.494Z,8.84
2023-04-29T04:43:18.381Z,8.86
2023-04-29T04:43:41.627Z,8.87
2023-04-29T04:44:09.927Z,8.87
2023-04-29T04:44:55.153Z,8.88
2023-04-29T04:45:37.424Z,8.88
2023-04-29T04:45:59.495Z,8.87
2023-04-29T04:46:21.390Z,8.87
2023-04-29T04:46:50.813Z,8.87
2023-04-29T04:47:23.672Z,8.86
2023-04-29T04:48:11.504Z,8.85
2023-04-29T04:48:34.513Z,8.85
2023-04-29T04:48:56.399Z,8.85
2023-04-29T04:49:18.296Z,8.84
2023-04-29T04:49:47.232Z,8.86
2023-04-29T04:50:09.629Z,8.86
2023-04-29T04:50:32.134Z,8.88
2023-04-29T04:50:54.328Z,8.88
2023-04-29T04:51:16.210Z,8.89
2023-04-29T04:51:38.094Z,8.89
2023-04-29T04:52:00.114Z,8.90
2023-04-29T04:52:22.380Z,8.91
2023-04-29T04:52:51.223Z,8.91
2023-04-29T04:53:25.176Z,8.92
2023-04-29T04:53:57.595Z,8.93
2023-04-29T04:54:19.995Z,8.93
2023-04-29T04:54:45.261Z,8.93
2023-04-29T04:55:12.265Z,8.93
2023-04-29T04:55:38.353Z,8.92
2023-04-29T04:56:03.908Z,8.92
2023-04-29T04:56:25.964Z,8.91
2023-04-29T04:56:48.624Z,8.91
2023-04-29T04:57:10.592Z,8.90
2023-04-29T04:57:32.374Z,8.90
2023-04-29T04:57:55.838Z,8.89
2023-04-29T04:58:17.683Z,8.89
2023-04-29T04:58:39.569Z,8.89
2023-04-29T04:59:01.353Z,8.89
2023-04-29T04:59:23.245Z,8.90
2023-04-29T04:59:45.134Z,8.90
2023-04-29T05:00:07.565Z,8.91
2023-04-29T05:00:29.514Z,8.92
2023-04-29T05:00:51.963Z,8.93
2023-04-29T05:01:13.942Z,8.93
2023-04-29T05:01:35.868Z,8.94
2023-04-29T05:01:57.895Z,8.95
2023-04-29T05:02:19.730Z,8.96
2023-04-29T05:02:42.259Z,8.98
2023-04-29T05:03:04.464Z,8.98
2023-04-29T05:03:26.862Z,9.00
2023-04-29T05:03:49.759Z,9.00
2023-04-29T05:04:11.775Z,9.02
2023-04-29T05:04:33.808Z,9.02
2023-04-29T05:04:56.349Z,9.03
2023-04-29T05:05:20.083Z,9.03
2023-04-29T05:05:41.868Z,9.03
2023-04-29T05:06:03.859Z,9.02
2023-04-29T05:06:25.840Z,9.02
2023-04-29T05:06:47.730Z,9.01
2023-04-29T05:07:10.127Z,9.00
2023-04-29T05:07:51.570Z,8.98
2023-04-29T05:08:16.860Z,8.95
2023-04-29T05:08:40.076Z,8.94
2023-04-29T05:09:03.458Z,8.93
2023-04-29T05:09:27.072Z,8.93
2023-04-29T05:09:49.543Z,8.93
2023-04-29T05:10:11.567Z,8.94
2023-04-29T05:10:41.196Z,8.93
2023-04-29T05:11:03.114Z,8.93
2023-04-29T05:11:24.881Z,8.94
2023-04-29T05:12:13.162Z,8.95
2023-04-29T05:12:35.558Z,8.96
2023-04-29T05:12:57.551Z,8.96
2023-04-29T05:13:19.540Z,8.97
2023-04-29T05:13:41.631Z,8.97
2023-04-29T05:14:03.720Z,8.99
2023-04-29T05:14:26.125Z,9.00
2023-04-29T05:14:47.916Z,9.01
2023-04-29T05:15:10.006Z,9.01
2023-04-29T05:15:32.600Z,9.02
2023-04-29T05:15:55.404Z,9.02
2023-04-29T05:16:19.679Z,9.01
2023-04-29T05:16:41.633Z,9.01
2023-04-29T05:17:03.631Z,9.01
2023-04-29T05:17:25.659Z,9.00
2023-04-29T05:17:47.541Z,9.00
2023-04-29T05:18:09.384Z,8.99
2023-04-29T05:18:31.271Z,8.99